sensor_id;sensor_type;location;lat;lon;timestamp;pressure;altitude;pressure_sealevel;temperature;humidity
51083;BME280;37131;42.694;23.350;2023-03-04T00:01:42;95514.41;;;6.41;91.75
51083;BME280;37131;42.694;23.350;2023-03-04T00:04:07;95527.09;;;6.01;92.81
51083;BME280;37131;42.694;23.350;2023-03-04T00:06:33;95527.38;;;6.13;91.79
51083;BME280;37131;42.694;23.350;2023-03-04T00:08:58;95521.72;;;6.03;92.18
51083;BME280;37131;42.694;23.350;2023-03-04T00:11:25;95527.88;;;6.02;93.29
51083;BME280;37131;42.694;23.350;2023-03-04T00:13:50;95520.13;;;5.80;94.35
51083;BME280;37131;42.694;23.350;2023-03-04T00:16:16;95522.56;;;5.60;96.13
51083;BME280;37131;42.694;23.350;2023-03-04T00:18:41;95519.59;;;5.41;97.68
51083;BME280;37131;42.694;23.350;2023-03-04T00:21:12;95500.91;;;5.89;95.48
51083;BME280;37131;42.694;23.350;2023-03-04T00:23:37;95504.22;;;6.05;94.19
51083;BME280;37131;42.694;23.350;2023-03-04T00:26:05;95497.47;;;6.10;94.17
51083;BME280;37131;42.694;23.350;2023-03-04T00:28:32;95501.97;;;6.30;93.43
51083;BME280;37131;42.694;23.350;2023-03-04T00:30:57;95502.41;;;6.34;92.44
51083;BME280;37131;42.694;23.350;2023-03-04T00:33:22;95507.47;;;5.92;95.48
51083;BME280;37131;42.694;23.350;2023-03-04T00:35:48;95502.72;;;5.95;95.88
51083;BME280;37131;42.694;23.350;2023-03-04T00:38:13;95496.09;;;5.86;96.83
51083;BME280;37131;42.694;23.350;2023-03-04T00:40:38;95485.13;;;6.06;95.03
51083;BME280;37131;42.694;23.350;2023-03-04T00:43:04;95500.34;;;5.94;94.77
51083;BME280;37131;42.694;23.350;2023-03-04T00:45:29;95496.47;;;5.83;95.40
51083;BME280;37131;42.694;23.350;2023-03-04T00:47:55;95480.91;;;6.05;93.71
51083;BME280;37131;42.694;23.350;2023-03-04T00:50:20;95506.78;;;5.55;96.86
51083;BME280;37131;42.694;23.350;2023-03-04T00:52:45;95482.81;;;5.96;95.52
51083;BME280;37131;42.694;23.350;2023-03-04T00:55:11;95493.44;;;6.01;94.02
51083;BME280;37131;42.694;23.350;2023-03-04T00:57:36;95490.69;;;6.09;93.85
51083;BME280;37131;42.694;23.350;2023-03-04T01:00:03;95494.50;;;5.85;95.67
51083;BME280;37131;42.694;23.350;2023-03-04T01:02:29;95497.69;;;5.87;95.11
51083;BME280;37131;42.694;23.350;2023-03-04T01:04:54;95489.34;;;5.92;95.06
51083;BME280;37131;42.694;23.350;2023-03-04T01:07:19;95488.16;;;6.16;93.53
51083;BME280;37131;42.694;23.350;2023-03-04T01:09:45;95493.66;;;6.06;93.46
51083;BME280;37131;42.694;23.350;2023-03-04T01:12:10;95487.19;;;6.17;92.78
51083;BME280;37131;42.694;23.350;2023-03-04T01:14:36;95493.38;;;6.23;92.00
51083;BME280;37131;42.694;23.350;2023-03-04T01:17:01;95492.19;;;6.25;91.73
51083;BME280;37131;42.694;23.350;2023-03-04T01:19:27;95483.13;;;6.43;90.11
51083;BME280;37131;42.694;23.350;2023-03-04T01:21:52;95486.34;;;5.88;93.33
51083;BME280;37131;42.694;23.350;2023-03-04T01:24:17;95478.81;;;5.93;93.01
51083;BME280;37131;42.694;23.350;2023-03-04T01:26:43;95477.53;;;6.04;91.55
51083;BME280;37131;42.694;23.350;2023-03-04T01:29:08;95483.28;;;5.50;95.33
51083;BME280;37131;42.694;23.350;2023-03-04T01:31:34;95478.09;;;5.50;94.17
51083;BME280;37131;42.694;23.350;2023-03-04T01:33:59;95481.47;;;5.50;95.17
51083;BME280;37131;42.694;23.350;2023-03-04T01:36:24;95479.91;;;5.27;96.42
51083;BME280;37131;42.694;23.350;2023-03-04T01:38:50;95484.63;;;5.24;97.51
51083;BME280;37131;42.694;23.350;2023-03-04T01:41:18;95475.69;;;5.48;95.88
51083;BME280;37131;42.694;23.350;2023-03-04T01:43:46;95466.91;;;5.71;95.27
51083;BME280;37131;42.694;23.350;2023-03-04T01:46:12;95462.59;;;5.78;94.03
51083;BME280;37131;42.694;23.350;2023-03-04T01:48:40;95436.53;;;5.79;93.36
51083;BME280;37131;42.694;23.350;2023-03-04T01:51:11;95458.84;;;5.52;95.12
51083;BME280;37131;42.694;23.350;2023-03-04T01:53:38;95456.00;;;5.47;95.90
51083;BME280;37131;42.694;23.350;2023-03-04T01:56:34;95454.66;;;5.79;93.45
51083;BME280;37131;42.694;23.350;2023-03-04T01:59:14;95444.34;;;5.86;93.33
51083;BME280;37131;42.694;23.350;2023-03-04T02:01:51;95447.59;;;5.95;92.89
51083;BME280;37131;42.694;23.350;2023-03-04T02:04:20;95450.25;;;5.80;93.57
51083;BME280;37131;42.694;23.350;2023-03-04T02:06:47;95445.13;;;5.87;93.76
51083;BME280;37131;42.694;23.350;2023-03-04T02:09:14;95447.41;;;5.96;92.48
51083;BME280;37131;42.694;23.350;2023-03-04T02:11:40;95439.56;;;6.11;91.27
51083;BME280;37131;42.694;23.350;2023-03-04T02:14:06;95453.59;;;5.74;93.14
51083;BME280;37131;42.694;23.350;2023-03-04T02:16:32;95459.13;;;5.42;95.25
51083;BME280;37131;42.694;23.350;2023-03-04T02:18:58;95437.00;;;5.33;95.47
51083;BME280;37131;42.694;23.350;2023-03-04T02:21:33;95452.63;;;5.47;95.56
51083;BME280;37131;42.694;23.350;2023-03-04T02:26:50;95449.78;;;5.41;94.12
51083;BME280;37131;42.694;23.350;2023-03-04T02:29:16;95452.09;;;5.58;94.33
51083;BME280;37131;42.694;23.350;2023-03-04T02:31:47;95440.16;;;5.85;92.59
51083;BME280;37131;42.694;23.350;2023-03-04T02:34:14;95455.25;;;5.53;94.06
51083;BME280;37131;42.694;23.350;2023-03-04T02:36:42;95446.78;;;5.38;95.04
51083;BME280;37131;42.694;23.350;2023-03-04T02:41:49;95448.09;;;5.27;97.57
51083;BME280;37131;42.694;23.350;2023-03-04T02:44:18;95446.69;;;5.31;97.38
51083;BME280;37131;42.694;23.350;2023-03-04T02:46:44;95440.91;;;5.51;96.57
51083;BME280;37131;42.694;23.350;2023-03-04T02:49:10;95440.66;;;5.45;96.73
51083;BME280;37131;42.694;23.350;2023-03-04T02:51:35;95444.38;;;5.36;96.88
51083;BME280;37131;42.694;23.350;2023-03-04T02:54:00;95437.59;;;5.35;96.62
51083;BME280;37131;42.694;23.350;2023-03-04T02:56:26;95434.03;;;5.15;97.99
51083;BME280;37131;42.694;23.350;2023-03-04T02:58:51;95435.94;;;4.84;99.81
51083;BME280;37131;42.694;23.350;2023-03-04T03:01:16;95439.41;;;4.77;100.00
51083;BME280;37131;42.694;23.350;2023-03-04T03:03:42;95434.94;;;4.64;100.00
51083;BME280;37131;42.694;23.350;2023-03-04T03:06:07;95437.34;;;4.65;100.00
51083;BME280;37131;42.694;23.350;2023-03-04T03:08:33;95438.94;;;4.51;100.00
51083;BME280;37131;42.694;23.350;2023-03-04T03:10:58;95441.97;;;4.55;100.00
51083;BME280;37131;42.694;23.350;2023-03-04T03:13:23;95441.69;;;4.65;100.00
51083;BME280;37131;42.694;23.350;2023-03-04T03:15:49;95436.47;;;4.43;100.00
51083;BME280;37131;42.694;23.350;2023-03-04T03:18:14;95442.63;;;4.42;100.00
51083;BME280;37131;42.694;23.350;2023-03-04T03:20:40;95439.31;;;4.48;100.00
51083;BME280;37131;42.694;23.350;2023-03-04T03:23:06;95439.28;;;4.63;100.00
51083;BME280;37131;42.694;23.350;2023-03-04T03:25:32;95444.34;;;4.71;100.00
51083;BME280;37131;42.694;23.350;2023-03-04T03:27:57;95444.06;;;4.66;100.00
51083;BME280;37131;42.694;23.350;2023-03-04T03:30:22;95443.88;;;4.83;100.00
51083;BME280;37131;42.694;23.350;2023-03-04T03:32:48;95437.09;;;4.82;100.00
51083;BME280;37131;42.694;23.350;2023-03-04T03:35:13;95429.63;;;4.50;100.00
51083;BME280;37131;42.694;23.350;2023-03-04T03:37:39;95434.00;;;4.35;100.00
51083;BME280;37131;42.694;23.350;2023-03-04T03:40:04;95431.41;;;4.35;100.00
51083;BME280;37131;42.694;23.350;2023-03-04T03:42:30;95436.16;;;4.31;100.00
51083;BME280;37131;42.694;23.350;2023-03-04T03:44:55;95437.13;;;4.30;100.00
51083;BME280;37131;42.694;23.350;2023-03-04T03:47:21;95419.59;;;4.11;100.00
51083;BME280;37131;42.694;23.350;2023-03-04T03:49:46;95429.56;;;4.14;100.00
51083;BME280;37131;42.694;23.350;2023-03-04T03:52:12;95428.75;;;4.13;100.00
51083;BME280;37131;42.694;23.350;2023-03-04T03:54:37;95426.50;;;4.25;100.00
51083;BME280;37131;42.694;23.350;2023-03-04T03:57:03;95428.03;;;4.34;100.00
51083;BME280;37131;42.694;23.350;2023-03-04T03:59:28;95428.75;;;4.28;100.00
51083;BME280;37131;42.694;23.350;2023-03-04T04:01:54;95424.84;;;4.17;100.00
51083;BME280;37131;42.694;23.350;2023-03-04T04:04:19;95420.94;;;4.07;100.00
51083;BME280;37131;42.694;23.350;2023-03-04T04:06:44;95421.47;;;4.02;100.00
51083;BME280;37131;42.694;23.350;2023-03-04T04:09:10;95408.47;;;3.80;100.00
51083;BME280;37131;42.694;23.350;2023-03-04T04:11:35;95408.66;;;3.94;100.00
51083;BME280;37131;42.694;23.350;2023-03-04T04:14:01;95413.63;;;3.80;100.00
51083;BME280;37131;42.694;23.350;2023-03-04T04:16:26;95411.50;;;3.99;100.00
51083;BME280;37131;42.694;23.350;2023-03-04T04:18:52;95422.00;;;3.82;100.00
51083;BME280;37131;42.694;23.350;2023-03-04T04:21:17;95418.53;;;3.75;100.00
51083;BME280;37131;42.694;23.350;2023-03-04T04:23:42;95422.97;;;3.66;100.00
51083;BME280;37131;42.694;23.350;2023-03-04T04:26:08;95415.50;;;4.01;100.00
51083;BME280;37131;42.694;23.350;2023-03-04T04:28:33;95414.81;;;4.08;100.00
51083;BME280;37131;42.694;23.350;2023-03-04T04:30:58;95408.31;;;3.82;100.00
51083;BME280;37131;42.694;23.350;2023-03-04T04:33:25;95414.34;;;3.74;100.00
51083;BME280;37131;42.694;23.350;2023-03-04T04:35:50;95416.81;;;3.67;100.00
51083;BME280;37131;42.694;23.350;2023-03-04T04:38:16;95416.31;;;4.02;100.00
51083;BME280;37131;42.694;23.350;2023-03-04T04:40:41;95416.38;;;4.09;100.00
51083;BME280;37131;42.694;23.350;2023-03-04T04:43:07;95420.47;;;4.03;100.00
51083;BME280;37131;42.694;23.350;2023-03-04T04:45:33;95408.22;;;3.90;100.00
51083;BME280;37131;42.694;23.350;2023-03-04T04:47:58;95430.34;;;3.69;100.00
51083;BME280;37131;42.694;23.350;2023-03-04T04:50:24;95415.78;;;3.62;100.00
51083;BME280;37131;42.694;23.350;2023-03-04T04:52:49;95421.69;;;3.47;100.00
51083;BME280;37131;42.694;23.350;2023-03-04T04:55:15;95424.34;;;3.39;100.00
51083;BME280;37131;42.694;23.350;2023-03-04T04:57:41;95423.44;;;3.32;100.00
51083;BME280;37131;42.694;23.350;2023-03-04T05:00:07;95430.72;;;3.28;100.00
51083;BME280;37131;42.694;23.350;2023-03-04T05:02:34;95434.22;;;3.50;100.00
51083;BME280;37131;42.694;23.350;2023-03-04T05:05:04;95431.53;;;3.44;100.00
51083;BME280;37131;42.694;23.350;2023-03-04T05:07:30;95439.22;;;3.52;100.00
51083;BME280;37131;42.694;23.350;2023-03-04T05:09:55;95440.13;;;3.74;100.00
51083;BME280;37131;42.694;23.350;2023-03-04T05:12:21;95447.31;;;3.64;100.00
51083;BME280;37131;42.694;23.350;2023-03-04T05:14:46;95450.63;;;3.73;100.00
51083;BME280;37131;42.694;23.350;2023-03-04T05:17:11;95439.78;;;3.77;100.00
51083;BME280;37131;42.694;23.350;2023-03-04T05:19:37;95450.66;;;4.02;100.00
51083;BME280;37131;42.694;23.350;2023-03-04T05:22:02;95448.69;;;3.90;100.00
51083;BME280;37131;42.694;23.350;2023-03-04T05:24:28;95451.72;;;3.93;100.00
51083;BME280;37131;42.694;23.350;2023-03-04T05:26:53;95450.94;;;3.93;100.00
51083;BME280;37131;42.694;23.350;2023-03-04T05:29:19;95446.84;;;4.28;100.00
51083;BME280;37131;42.694;23.350;2023-03-04T05:31:44;95451.16;;;4.28;100.00
51083;BME280;37131;42.694;23.350;2023-03-04T05:34:09;95450.38;;;4.27;100.00
51083;BME280;37131;42.694;23.350;2023-03-04T05:36:35;95461.13;;;4.61;100.00
51083;BME280;37131;42.694;23.350;2023-03-04T05:39:00;95452.53;;;4.75;100.00
51083;BME280;37131;42.694;23.350;2023-03-04T05:41:26;95455.06;;;4.90;100.00
51083;BME280;37131;42.694;23.350;2023-03-04T05:43:51;95464.81;;;4.73;100.00
51083;BME280;37131;42.694;23.350;2023-03-04T05:46:17;95450.94;;;4.96;100.00
51083;BME280;37131;42.694;23.350;2023-03-04T05:48:43;95454.84;;;5.28;100.00
51083;BME280;37131;42.694;23.350;2023-03-04T05:51:09;95462.72;;;5.20;100.00
51083;BME280;37131;42.694;23.350;2023-03-04T05:53:35;95463.09;;;5.17;100.00
51083;BME280;37131;42.694;23.350;2023-03-04T05:56:15;95465.69;;;5.17;100.00
51083;BME280;37131;42.694;23.350;2023-03-04T05:58:41;95470.19;;;5.08;100.00
51083;BME280;37131;42.694;23.350;2023-03-04T06:01:07;95477.34;;;4.91;100.00
51083;BME280;37131;42.694;23.350;2023-03-04T06:03:33;95465.81;;;5.30;100.00
51083;BME280;37131;42.694;23.350;2023-03-04T06:05:58;95421.91;;;4.94;100.00
51083;BME280;37131;42.694;23.350;2023-03-04T06:08:24;95478.63;;;5.02;100.00
51083;BME280;37131;42.694;23.350;2023-03-04T06:10:52;95477.59;;;4.96;100.00
51083;BME280;37131;42.694;23.350;2023-03-04T06:13:19;95478.25;;;4.83;100.00
51083;BME280;37131;42.694;23.350;2023-03-04T06:15:44;95471.25;;;4.77;100.00
51083;BME280;37131;42.694;23.350;2023-03-04T06:18:10;95477.34;;;4.39;100.00
51083;BME280;37131;42.694;23.350;2023-03-04T06:20:35;95478.50;;;4.37;100.00
51083;BME280;37131;42.694;23.350;2023-03-04T06:23:01;95489.16;;;4.34;100.00
51083;BME280;37131;42.694;23.350;2023-03-04T06:25:27;95475.91;;;4.22;100.00
51083;BME280;37131;42.694;23.350;2023-03-04T06:27:52;95481.06;;;4.22;100.00
51083;BME280;37131;42.694;23.350;2023-03-04T06:30:18;95482.56;;;4.61;100.00
51083;BME280;37131;42.694;23.350;2023-03-04T06:32:44;95479.91;;;4.39;100.00
51083;BME280;37131;42.694;23.350;2023-03-04T06:35:11;95485.44;;;4.36;100.00
51083;BME280;37131;42.694;23.350;2023-03-04T06:37:37;95482.84;;;4.51;100.00
51083;BME280;37131;42.694;23.350;2023-03-04T06:40:02;95490.53;;;4.81;100.00
51083;BME280;37131;42.694;23.350;2023-03-04T06:42:28;95491.94;;;4.99;100.00
51083;BME280;37131;42.694;23.350;2023-03-04T06:44:53;95489.59;;;5.25;100.00
51083;BME280;37131;42.694;23.350;2023-03-04T06:47:19;95487.81;;;5.69;100.00
51083;BME280;37131;42.694;23.350;2023-03-04T06:49:44;95488.44;;;5.50;100.00
51083;BME280;37131;42.694;23.350;2023-03-04T06:52:09;95484.69;;;6.02;95.70
51083;BME280;37131;42.694;23.350;2023-03-04T06:54:37;95495.13;;;6.15;94.09
51083;BME280;37131;42.694;23.350;2023-03-04T06:57:03;95484.16;;;6.13;92.46
51083;BME280;37131;42.694;23.350;2023-03-04T06:59:28;95500.38;;;5.72;92.31
51083;BME280;37131;42.694;23.350;2023-03-04T07:01:53;95493.91;;;5.40;96.03
51083;BME280;37131;42.694;23.350;2023-03-04T07:04:19;95495.94;;;5.94;94.24
51083;BME280;37131;42.694;23.350;2023-03-04T07:06:47;95500.25;;;5.80;95.46
51083;BME280;37131;42.694;23.350;2023-03-04T07:09:12;95442.09;;;5.48;94.68
51083;BME280;37131;42.694;23.350;2023-03-04T07:11:38;95505.63;;;5.86;94.84
51083;BME280;37131;42.694;23.350;2023-03-04T07:14:03;95501.06;;;6.09;93.78
51083;BME280;37131;42.694;23.350;2023-03-04T07:16:28;95495.47;;;5.84;92.95
51083;BME280;37131;42.694;23.350;2023-03-04T07:18:54;95496.03;;;6.01;90.45
51083;BME280;37131;42.694;23.350;2023-03-04T07:21:19;95498.34;;;5.96;92.19
51083;BME280;37131;42.694;23.350;2023-03-04T07:23:45;95506.69;;;5.91;91.25
51083;BME280;37131;42.694;23.350;2023-03-04T07:26:11;95505.91;;;5.69;92.27
51083;BME280;37131;42.694;23.350;2023-03-04T07:28:36;95506.22;;;6.09;91.45
51083;BME280;37131;42.694;23.350;2023-03-04T07:31:20;95500.81;;;6.32;88.02
51083;BME280;37131;42.694;23.350;2023-03-04T07:33:46;95500.81;;;6.32;87.25
51083;BME280;37131;42.694;23.350;2023-03-04T07:36:11;95490.03;;;6.29;88.38
51083;BME280;37131;42.694;23.350;2023-03-04T07:38:42;95499.84;;;6.40;88.66
51083;BME280;37131;42.694;23.350;2023-03-04T07:41:07;95508.06;;;6.15;88.39
51083;BME280;37131;42.694;23.350;2023-03-04T07:43:33;95460.19;;;5.98;86.65
51083;BME280;37131;42.694;23.350;2023-03-04T07:46:00;95501.84;;;6.38;86.71
51083;BME280;37131;42.694;23.350;2023-03-04T07:48:26;95499.56;;;6.70;87.34
51083;BME280;37131;42.694;23.350;2023-03-04T07:51:22;95492.63;;;6.77;88.95
51083;BME280;37131;42.694;23.350;2023-03-04T07:53:52;95496.28;;;6.90;89.32
51083;BME280;37131;42.694;23.350;2023-03-04T07:56:20;95490.88;;;6.84;88.75
51083;BME280;37131;42.694;23.350;2023-03-04T07:58:46;95497.81;;;6.77;88.62
51083;BME280;37131;42.694;23.350;2023-03-04T08:01:18;95489.78;;;6.65;88.99
51083;BME280;37131;42.694;23.350;2023-03-04T08:03:44;95487.72;;;7.02;88.94
51083;BME280;37131;42.694;23.350;2023-03-04T08:06:12;95479.16;;;6.95;89.63
51083;BME280;37131;42.694;23.350;2023-03-04T08:08:38;95496.72;;;6.17;90.31
51083;BME280;37131;42.694;23.350;2023-03-04T08:11:05;95493.28;;;6.44;91.75
51083;BME280;37131;42.694;23.350;2023-03-04T08:13:31;95485.03;;;6.69;91.21
51083;BME280;37131;42.694;23.350;2023-03-04T08:15:58;95474.28;;;6.79;90.57
51083;BME280;37131;42.694;23.350;2023-03-04T08:18:23;95489.22;;;6.70;90.41
51083;BME280;37131;42.694;23.350;2023-03-04T08:20:48;95487.59;;;6.56;89.64
51083;BME280;37131;42.694;23.350;2023-03-04T08:23:14;95490.09;;;6.42;90.64
51083;BME280;37131;42.694;23.350;2023-03-04T08:25:40;95490.63;;;6.31;91.19
51083;BME280;37131;42.694;23.350;2023-03-04T08:28:07;95490.94;;;6.14;94.32
51083;BME280;37131;42.694;23.350;2023-03-04T08:30:33;95493.59;;;6.28;93.10
51083;BME280;37131;42.694;23.350;2023-03-04T08:32:59;95485.56;;;5.88;95.23
51083;BME280;37131;42.694;23.350;2023-03-04T08:35:24;95482.09;;;6.37;92.93
51083;BME280;37131;42.694;23.350;2023-03-04T08:37:50;95484.59;;;6.59;91.34
51083;BME280;37131;42.694;23.350;2023-03-04T08:40:15;95481.75;;;6.47;91.82
51083;BME280;37131;42.694;23.350;2023-03-04T08:42:41;95478.84;;;6.70;91.48
51083;BME280;37131;42.694;23.350;2023-03-04T08:45:07;95481.91;;;6.94;89.67
51083;BME280;37131;42.694;23.350;2023-03-04T08:47:33;95481.97;;;6.52;89.85
51083;BME280;37131;42.694;23.350;2023-03-04T08:49:58;95471.59;;;7.00;88.11
51083;BME280;37131;42.694;23.350;2023-03-04T08:52:24;95475.81;;;7.15;88.07
51083;BME280;37131;42.694;23.350;2023-03-04T08:54:49;95473.81;;;7.10;87.64
51083;BME280;37131;42.694;23.350;2023-03-04T08:57:15;95474.63;;;7.24;87.25
51083;BME280;37131;42.694;23.350;2023-03-04T08:59:40;95472.25;;;7.43;85.61
51083;BME280;37131;42.694;23.350;2023-03-04T09:02:05;95476.06;;;7.67;84.39
51083;BME280;37131;42.694;23.350;2023-03-04T09:04:31;95469.66;;;7.63;85.22
51083;BME280;37131;42.694;23.350;2023-03-04T09:06:56;95454.28;;;7.95;82.64
51083;BME280;37131;42.694;23.350;2023-03-04T09:09:22;95463.03;;;8.07;80.93
51083;BME280;37131;42.694;23.350;2023-03-04T09:11:47;95460.47;;;7.27;82.08
51083;BME280;37131;42.694;23.350;2023-03-04T09:14:12;95465.66;;;7.40;84.51
51083;BME280;37131;42.694;23.350;2023-03-04T09:16:38;95457.09;;;7.60;83.60
51083;BME280;37131;42.694;23.350;2023-03-04T09:19:03;95461.88;;;7.63;82.51
51083;BME280;37131;42.694;23.350;2023-03-04T09:21:29;95448.09;;;7.76;81.53
51083;BME280;37131;42.694;23.350;2023-03-04T09:23:54;95458.47;;;7.42;81.63
51083;BME280;37131;42.694;23.350;2023-03-04T09:26:25;95458.50;;;7.62;80.08
51083;BME280;37131;42.694;23.350;2023-03-04T09:28:56;95453.09;;;7.24;81.43
51083;BME280;37131;42.694;23.350;2023-03-04T09:31:22;95455.66;;;7.10;82.41
51083;BME280;37131;42.694;23.350;2023-03-04T09:33:49;95454.50;;;7.60;81.06
51083;BME280;37131;42.694;23.350;2023-03-04T09:36:15;95453.91;;;7.71;81.04
51083;BME280;37131;42.694;23.350;2023-03-04T09:38:40;95442.13;;;7.75;80.46
51083;BME280;37131;42.694;23.350;2023-03-04T09:41:28;95445.09;;;7.79;80.63
51083;BME280;37131;42.694;23.350;2023-03-04T09:43:58;95440.88;;;7.17;81.32
51083;BME280;37131;42.694;23.350;2023-03-04T09:46:37;95444.53;;;7.57;82.46
51083;BME280;37131;42.694;23.350;2023-03-04T09:49:03;95435.13;;;7.69;81.86
51083;BME280;37131;42.694;23.350;2023-03-04T09:57:03;95441.72;;;7.58;80.17
51083;BME280;37131;42.694;23.350;2023-03-04T09:59:41;95432.13;;;7.25;81.75
51083;BME280;37131;42.694;23.350;2023-03-04T10:02:43;95436.50;;;7.18;80.33
51083;BME280;37131;42.694;23.350;2023-03-04T10:05:16;95432.94;;;7.46;79.46
51083;BME280;37131;42.694;23.350;2023-03-04T10:07:45;95429.13;;;7.62;77.42
51083;BME280;37131;42.694;23.350;2023-03-04T10:10:16;95424.94;;;7.67;77.44
51083;BME280;37131;42.694;23.350;2023-03-04T10:12:45;95411.38;;;7.85;76.61
51083;BME280;37131;42.694;23.350;2023-03-04T10:15:30;95397.28;;;8.20;74.61
51083;BME280;37131;42.694;23.350;2023-03-04T10:18:06;95418.50;;;7.97;75.06
51083;BME280;37131;42.694;23.350;2023-03-04T10:20:49;95411.31;;;8.12;74.71
51083;BME280;37131;42.694;23.350;2023-03-04T10:23:20;95417.06;;;8.21;74.06
51083;BME280;37131;42.694;23.350;2023-03-04T10:25:46;95412.59;;;7.56;77.67
51083;BME280;37131;42.694;23.350;2023-03-04T10:28:18;95409.00;;;7.64;77.21
51083;BME280;37131;42.694;23.350;2023-03-04T10:33:25;95404.19;;;7.61;78.88
51083;BME280;37131;42.694;23.350;2023-03-04T10:38:45;95388.53;;;8.07;75.60
51083;BME280;37131;42.694;23.350;2023-03-04T10:41:12;95385.94;;;8.07;76.53
51083;BME280;37131;42.694;23.350;2023-03-04T10:43:38;95377.91;;;8.68;75.69
51083;BME280;37131;42.694;23.350;2023-03-04T10:46:04;95380.88;;;9.10;72.50
51083;BME280;37131;42.694;23.350;2023-03-04T10:48:30;95368.81;;;9.41;72.09
51083;BME280;37131;42.694;23.350;2023-03-04T10:51:21;95366.25;;;9.34;71.63
51083;BME280;37131;42.694;23.350;2023-03-04T10:54:00;95349.28;;;9.75;69.41
51083;BME280;37131;42.694;23.350;2023-03-04T10:56:42;95362.53;;;9.92;69.14
51083;BME280;37131;42.694;23.350;2023-03-04T10:59:39;95362.25;;;9.06;71.83
51083;BME280;37131;42.694;23.350;2023-03-04T11:02:28;95357.63;;;8.83;70.58
51083;BME280;37131;42.694;23.350;2023-03-04T11:07:29;95342.81;;;9.41;70.10
51083;BME280;37131;42.694;23.350;2023-03-04T11:09:54;95338.72;;;9.70;69.03
51083;BME280;37131;42.694;23.350;2023-03-04T11:12:21;95339.34;;;9.47;69.77
51083;BME280;37131;42.694;23.350;2023-03-04T11:14:55;95334.09;;;9.72;69.00
51083;BME280;37131;42.694;23.350;2023-03-04T11:17:47;95332.00;;;9.81;69.51
51083;BME280;37131;42.694;23.350;2023-03-04T11:22:56;95315.31;;;10.38;65.29
51083;BME280;37131;42.694;23.350;2023-03-04T11:25:34;95302.72;;;10.34;66.14
51083;BME280;37131;42.694;23.350;2023-03-04T11:31:08;95302.63;;;9.74;66.99
51083;BME280;37131;42.694;23.350;2023-03-04T11:42:20;95289.13;;;10.14;66.82
51083;BME280;37131;42.694;23.350;2023-03-04T11:44:49;95282.66;;;10.05;66.43
51083;BME280;37131;42.694;23.350;2023-03-04T11:47:31;95282.16;;;10.45;65.24
51083;BME280;37131;42.694;23.350;2023-03-04T11:50:47;95245.19;;;9.87;64.37
51083;BME280;37131;42.694;23.350;2023-03-04T11:56:41;95282.63;;;10.23;65.80
51083;BME280;37131;42.694;23.350;2023-03-04T12:12:29;95265.16;;;9.38;66.85
51083;BME280;37131;42.694;23.350;2023-03-04T12:20:38;95259.19;;;8.87;71.25
51083;BME280;37131;42.694;23.350;2023-03-04T12:23:18;95252.72;;;9.21;69.46
51083;BME280;37131;42.694;23.350;2023-03-04T12:28:48;95256.41;;;9.32;69.30
51083;BME280;37131;42.694;23.350;2023-03-04T12:34:13;95243.03;;;9.47;69.11
51083;BME280;37131;42.694;23.350;2023-03-04T12:36:51;95235.81;;;9.68;67.25
51083;BME280;37131;42.694;23.350;2023-03-04T12:39:46;95240.78;;;9.51;69.05
51083;BME280;37131;42.694;23.350;2023-03-04T12:42:46;95233.00;;;9.69;67.28
51083;BME280;37131;42.694;23.350;2023-03-04T12:45:19;95237.25;;;9.82;66.33
51083;BME280;37131;42.694;23.350;2023-03-04T12:48:17;95233.22;;;9.68;66.00
51083;BME280;37131;42.694;23.350;2023-03-04T12:51:16;95225.56;;;9.54;68.21
51083;BME280;37131;42.694;23.350;2023-03-04T12:59:37;95217.19;;;9.82;65.92
51083;BME280;37131;42.694;23.350;2023-03-04T13:02:34;95212.31;;;10.05;65.45
51083;BME280;37131;42.694;23.350;2023-03-04T13:05:07;95207.03;;;10.11;66.60
51083;BME280;37131;42.694;23.350;2023-03-04T13:10:32;95201.25;;;9.42;68.57
51083;BME280;37131;42.694;23.350;2023-03-04T13:12:59;95208.81;;;8.63;71.07
51083;BME280;37131;42.694;23.350;2023-03-04T13:17:58;95192.34;;;8.94;72.18
51083;BME280;37131;42.694;23.350;2023-03-04T13:20:32;95183.75;;;8.93;70.67
51083;BME280;37131;42.694;23.350;2023-03-04T13:51:25;95174.13;;;8.94;71.71
51083;BME280;37131;42.694;23.350;2023-03-04T13:56:42;95172.47;;;8.56;71.86
51083;BME280;37131;42.694;23.350;2023-03-04T13:59:18;95169.94;;;8.74;71.68
51083;BME280;37131;42.694;23.350;2023-03-04T14:04:27;95161.00;;;8.89;71.82
51083;BME280;37131;42.694;23.350;2023-03-04T14:06:55;95168.09;;;8.56;73.05
51083;BME280;37131;42.694;23.350;2023-03-04T14:09:32;95162.31;;;8.98;71.26
51083;BME280;37131;42.694;23.350;2023-03-04T14:12:02;95151.44;;;8.83;70.73
51083;BME280;37131;42.694;23.350;2023-03-04T14:14:58;95153.13;;;9.33;68.79
51083;BME280;37131;42.694;23.350;2023-03-04T14:17:28;95147.84;;;9.70;68.32
51083;BME280;37131;42.694;23.350;2023-03-04T14:19:55;95149.84;;;9.56;68.07
51083;BME280;37131;42.694;23.350;2023-03-04T14:22:27;95149.06;;;9.37;70.58
51083;BME280;37131;42.694;23.350;2023-03-04T14:27:22;95142.50;;;9.34;69.62
51083;BME280;37131;42.694;23.350;2023-03-04T14:29:56;95142.06;;;9.00;70.13
51083;BME280;37131;42.694;23.350;2023-03-04T14:32:22;95143.66;;;9.01;70.57
51083;BME280;37131;42.694;23.350;2023-03-04T14:34:49;95138.03;;;9.23;70.83
51083;BME280;37131;42.694;23.350;2023-03-04T14:37:26;95138.38;;;9.45;69.31
51083;BME280;37131;42.694;23.350;2023-03-04T14:39:56;95132.91;;;9.35;69.21
51083;BME280;37131;42.694;23.350;2023-03-04T14:42:35;95127.59;;;9.60;70.11
51083;BME280;37131;42.694;23.350;2023-03-04T14:45:01;95130.19;;;9.60;69.23
51083;BME280;37131;42.694;23.350;2023-03-04T14:47:37;95125.31;;;9.94;69.35
51083;BME280;37131;42.694;23.350;2023-03-04T14:50:25;95124.16;;;9.90;67.70
51083;BME280;37131;42.694;23.350;2023-03-04T14:53:11;95123.81;;;9.56;68.06
51083;BME280;37131;42.694;23.350;2023-03-04T14:55:37;95115.63;;;9.71;67.91